Phillips, Maine
Current Conditions -  °F | °C
As of 8:15 AM on Thursday 18 Dec 2014 (Local Time) from KWVL Reporting Station
Overcast Overcast  
Wind Chill: 27°   Ceiling: 1900
Heat Index: 34°   Visibility: 5mi
Dew Point: 30°   Wind: 8mph
Humidity: 87%   Direction: 310°NW
Pressure: 29.6"   Gusts: 17mph
Location:  44.82°N, 70.34°W
Report Text: KWVL 181315Z 31007G15KT 5SM FEW008 OVC019 01/M01 A2960 RMK AO1 P0001
Loading
Personal Weather Stations






























Interactive Weather Map New forecast layout! Learn more

10-Day Weather Forecast

Advertisements
Track Severe Weather on mobile